地図

経路データ

SID SEASON NUMBER BASIN SUBBASIN NAME ISO_TIME NATURE LAT LON WMO_WIND WMO_PRES WMO_AGENCY TRACK_TYPE DIST2LAND LANDFALL IFLAG USA_AGENCY USA_ATCF_ID USA_LAT USA_LON USA_RECORD USA_STATUS USA_WIND USA_PRES USA_SSHS USA_R34_NE USA_R34_SE USA_R34_SW USA_R34_NW USA_R50_NE USA_R50_SE USA_R50_SW USA_R50_NW USA_R64_NE USA_R64_SE USA_R64_SW USA_R64_NW USA_POCI USA_ROCI USA_RMW USA_EYE TOKYO_LAT TOKYO_LON TOKYO_GRADE TOKYO_WIND TOKYO_PRES TOKYO_R50_DIR TOKYO_R50_LONG TOKYO_R50_SHORT TOKYO_R30_DIR TOKYO_R30_LONG TOKYO_R30_SHORT TOKYO_LAND CMA_LAT CMA_LON CMA_CAT CMA_WIND CMA_PRES HKO_LAT HKO_LON HKO_CAT HKO_WIND HKO_PRES NEWDELHI_LAT NEWDELHI_LON NEWDELHI_GRADE NEWDELHI_WIND NEWDELHI_PRES NEWDELHI_CI NEWDELHI_DP NEWDELHI_POCI REUNION_LAT REUNION_LON REUNION_TYPE REUNION_WIND REUNION_PRES REUNION_TNUM REUNION_CI REUNION_RMW REUNION_R34_NE REUNION_R34_SE REUNION_R34_SW REUNION_R34_NW REUNION_R50_NE REUNION_R50_SE REUNION_R50_SW REUNION_R50_NW REUNION_R64_NE REUNION_R64_SE REUNION_R64_SW REUNION_R64_NW BOM_LAT BOM_LON BOM_TYPE BOM_WIND BOM_PRES BOM_TNUM BOM_CI BOM_RMW BOM_R34_NE BOM_R34_SE BOM_R34_SW BOM_R34_NW BOM_R50_NE BOM_R50_SE BOM_R50_SW BOM_R50_NW BOM_R64_NE BOM_R64_SE BOM_R64_SW BOM_R64_NW BOM_ROCI BOM_POCI BOM_EYE BOM_POS_METHOD BOM_PRES_METHOD NADI_LAT NADI_LON NADI_CAT NADI_WIND NADI_PRES WELLINGTON_LAT WELLINGTON_LON WELLINGTON_WIND WELLINGTON_PRES DS824_LAT DS824_LON DS824_STAGE DS824_WIND DS824_PRES TD9636_LAT TD9636_LON TD9636_STAGE TD9636_WIND TD9636_PRES TD9635_LAT TD9635_LON TD9635_WIND TD9635_PRES TD9635_ROCI NEUMANN_LAT NEUMANN_LON NEUMANN_CLASS NEUMANN_WIND NEUMANN_PRES MLC_LAT MLC_LON MLC_CLASS MLC_WIND MLC_PRES USA_GUST BOM_GUST BOM_GUST_PER REUNION_GUST REUNION_GUST_PER USA_SEAHGT USA_SEARAD_NE USA_SEARAD_SE USA_SEARAD_SW USA_SEARAD_NW STORM_SPEED STORM_DIR
1913032S17053 1913 14 SI MM NOT_NAMED 1913-01-31 18:00:00 NR -16.5000 52.8000 main 275 275 __________O___ -1 -16.5000 52.8000 7 3 0
1913032S17053 1913 14 SI MM NOT_NAMED 1913-01-31 21:00:00 NR -16.6500 52.7905 main 279 279 __________P___ -1 -16.6500 52.7905 7 3 0
1913032S17053 1913 14 SI MM NOT_NAMED 1913-02-01 00:00:00 NR -16.8199 52.7748 main 289 289 __________P___ -1 -16.8199 52.7748 7 4 185
1913032S17053 1913 14 SI MM NOT_NAMED 1913-02-01 03:00:00 NR -17.0300 52.7467 main 289 289 __________P___ -1 -17.0300 52.7467 7 5 188
1913032S17053 1913 14 SI MM NOT_NAMED 1913-02-01 06:00:00 NR -17.3000 52.7000 main 303 303 __________O___ -1 -17.3000 52.7000 7 6 190
1913032S17053 1913 14 SI MM NOT_NAMED 1913-02-01 09:00:00 NR -17.6441 52.6315 main 310 310 __________P___ -1 -17.6441 52.6315 7 8 191
1913032S17053 1913 14 SI MM NOT_NAMED 1913-02-01 12:00:00 NR -18.0526 52.5503 main 330 320 __________P___ -1 -18.0526 52.5503 7 9 190
1913032S17053 1913 14 SI MM NOT_NAMED 1913-02-01 15:00:00 NR -18.5098 52.4690 main 328 319 __________P___ -1 -18.5098 52.4690 7 10 188
1913032S17053 1913 14 SI MM NOT_NAMED 1913-02-01 18:00:00 NR -19.0000 52.4000 main 328 328 __________O___ -1 -19.0000 52.4000 7 10 187
1913032S17053 1913 14 SI MM NOT_NAMED 1913-02-01 21:00:00 NR -19.5044 52.3446 main 337 325 __________P___ -1 -19.5044 52.3446 7 10 185
1913032S17053 1913 14 SI MM NOT_NAMED 1913-02-02 00:00:00 NR -20.0350 52.3053 main 325 308 __________P___ -1 -20.0350 52.3053 7 11 183
1913032S17053 1913 14 SI MM NOT_NAMED 1913-02-02 03:00:00 NR -20.5731 52.2884 main 306 300 __________P___ -1 -20.5731 52.2884 7 11 181
1913032S17053 1913 14 SI MM NOT_NAMED 1913-02-02 06:00:00 NR -21.1000 52.3000 main 300 300 __________O___ -1 -21.1000 52.3000 7 10 178
1913032S17053 1913 14 SI MM NOT_NAMED 1913-02-02 09:00:00 NR -21.5933 52.3301 main 305 300 __________P___ -1 -21.5933 52.3301 7 10 175
1913032S17053 1913 14 SI MM NOT_NAMED 1913-02-02 12:00:00 NR -22.0724 52.3902 main 310 310 __________P___ -1 -22.0724 52.3902 7 10 172
1913032S17053 1913 14 SI MM NOT_NAMED 1913-02-02 15:00:00 NR -22.5402 52.4803 main 318 318 __________P___ -1 -22.5402 52.4803 7 10 168
1913032S17053 1913 14 SI MM NOT_NAMED 1913-02-02 18:00:00 NR -23.0000 52.6000 main 336 336 __________O___ -1 -23.0000 52.6000 7 9 166
1913032S17053 1913 14 SI MM NOT_NAMED 1913-02-02 21:00:00 NR -23.4407 52.7187 main 355 355 __________P___ -1 -23.4407 52.7187 7 9 164
1913032S17053 1913 14 SI MM NOT_NAMED 1913-02-03 00:00:00 NR -23.8771 52.8691 main 380 380 __________P___ -1 -23.8771 52.8691 7 9 161
1913032S17053 1913 14 SI MM NOT_NAMED 1913-02-03 03:00:00 NR -24.3250 53.0598 main 404 404 __________P___ -1 -24.3250 53.0598 7 10 157
1913032S17053 1913 14 SI MM NOT_NAMED 1913-02-03 06:00:00 NR -24.8000 53.3000 main 441 441 __________O___ -1 -24.8000 53.3000 7 11 154
1913032S17053 1913 14 SI MM NOT_NAMED 1913-02-03 09:00:00 NR -25.3500 53.6066 main 489 486 __________P___ -1 -25.3500 53.6066 7 13 152
1913032S17053 1913 14 SI MM NOT_NAMED 1913-02-03 12:00:00 NR -25.9230 53.9607 main 528 528 __________P___ -1 -25.9230 53.9607 7 13 150
1913032S17053 1913 14 SI MM NOT_NAMED 1913-02-03 15:00:00 NR -26.4844 54.3348 main 585 582 __________P___ -1 -26.4844 54.3348 7 13 148
1913032S17053 1913 14 SI MM NOT_NAMED 1913-02-03 18:00:00 NR -27.0000 54.7000 main 632 632 __________O___ -1 -27.0000 54.7000 7 11 148
1913032S17053 1913 14 SI MM NOT_NAMED 1913-02-03 21:00:00 NR -27.4246 54.9961 main 673 673 __________P___ -1 -27.4246 54.9961 7 10 147
1913032S17053 1913 14 SI MM NOT_NAMED 1913-02-04 00:00:00 NR -27.8014 55.2803 main 715 715 __________P___ -1 -27.8014 55.2803 7 9 145
1913032S17053 1913 14 SI MM NOT_NAMED 1913-02-04 03:00:00 NR -28.1526 55.5742 main 759 759 __________P___ -1 -28.1526 55.5742 7 9 142
1913032S17053 1913 14 SI MM NOT_NAMED 1913-02-04 06:00:00 NR -28.5000 55.9000 main 793 793 __________O___ -1 -28.5000 55.9000 7 10 139
1913032S17053 1913 14 SI MM NOT_NAMED 1913-02-04 09:00:00 NR -28.8914 56.2928 main 840 840 __________P___ -1 -28.8914 56.2928 7 11 137
1913032S17053 1913 14 SI MM NOT_NAMED 1913-02-04 12:00:00 NR -29.2802 56.7195 main 889 889 __________P___ -1 -29.2802 56.7195 7 11 135
1913032S17053 1913 14 SI MM NOT_NAMED 1913-02-04 15:00:00 NR -29.6539 57.1616 main 940 940 __________P___ -1 -29.6539 57.1616 7 11 133
1913032S17053 1913 14 SI MM NOT_NAMED 1913-02-04 18:00:00 NR -30.0000 57.6000 main 981 981 __________O___ -1 -30.0000 57.6000 7 10 131
1913032S17053 1913 14 SI MM NOT_NAMED 1913-02-04 21:00:00 NR -30.3102 58.0195 main 1022 1022 __________P___ -1 -30.3102 58.0195 7 9 130
1913032S17053 1913 14 SI MM NOT_NAMED 1913-02-05 00:00:00 NR -30.5904 58.4219 main 1064 1064 __________P___ -1 -30.5904 58.4219 7 9 128
1913032S17053 1913 14 SI MM NOT_NAMED 1913-02-05 03:00:00 NR -30.8505 58.8132 main 1107 1107 __________P___ -1 -30.8505 58.8132 7 8 127
1913032S17053 1913 14 SI MM NOT_NAMED 1913-02-05 06:00:00 NR -31.1000 59.2000 main 1141 __________O___ -1 -31.1000 59.2000 7 8 127

IBTrACS Databaseについて

本データベースは、米国NOAAが公開する1842年以降の世界の熱帯低気圧のベストトラックデータアーカイブInternational Best Track Archive for Climate Stewardship (IBTrACS)を、ウェブで閲覧しやすい形式に変換したものです。

最終更新日:2021-11-26